sensor_id;sensor_type;location;lat;lon;timestamp;P1;durP1;ratioP1;P2;durP2;ratioP2
173;SDS011;75;48.784;9.364;2023-01-26T00:01:06;48.10;;;26.37;;
173;SDS011;75;48.784;9.364;2023-01-26T00:03:34;43.13;;;22.27;;
173;SDS011;75;48.784;9.364;2023-01-26T00:06:02;43.30;;;23.00;;
173;SDS011;75;48.784;9.364;2023-01-26T00:08:29;42.33;;;22.60;;
173;SDS011;75;48.784;9.364;2023-01-26T00:10:57;42.83;;;23.30;;
173;SDS011;75;48.784;9.364;2023-01-26T00:13:28;45.00;;;24.17;;
173;SDS011;75;48.784;9.364;2023-01-26T00:15:56;45.13;;;23.97;;
173;SDS011;75;48.784;9.364;2023-01-26T00:18:23;47.53;;;24.80;;
173;SDS011;75;48.784;9.364;2023-01-26T00:20:54;46.83;;;23.67;;
173;SDS011;75;48.784;9.364;2023-01-26T00:23:23;49.87;;;26.63;;
173;SDS011;75;48.784;9.364;2023-01-26T00:25:50;55.10;;;27.40;;
173;SDS011;75;48.784;9.364;2023-01-26T00:28:18;44.60;;;23.90;;
173;SDS011;75;48.784;9.364;2023-01-26T00:30:45;45.53;;;23.53;;
173;SDS011;75;48.784;9.364;2023-01-26T00:33:12;49.13;;;24.90;;
173;SDS011;75;48.784;9.364;2023-01-26T00:35:40;44.80;;;23.27;;
173;SDS011;75;48.784;9.364;2023-01-26T00:38:12;47.83;;;25.40;;
173;SDS011;75;48.784;9.364;2023-01-26T00:40:40;46.60;;;24.93;;
173;SDS011;75;48.784;9.364;2023-01-26T00:43:07;44.50;;;23.50;;
173;SDS011;75;48.784;9.364;2023-01-26T00:45:34;47.07;;;25.87;;
173;SDS011;75;48.784;9.364;2023-01-26T00:48:02;53.57;;;26.93;;
173;SDS011;75;48.784;9.364;2023-01-26T00:50:29;58.00;;;28.03;;
173;SDS011;75;48.784;9.364;2023-01-26T00:52:56;63.60;;;29.03;;
173;SDS011;75;48.784;9.364;2023-01-26T00:55:24;66.80;;;28.93;;
173;SDS011;75;48.784;9.364;2023-01-26T00:58:00;66.50;;;29.10;;
173;SDS011;75;48.784;9.364;2023-01-26T01:00:29;69.23;;;30.17;;
173;SDS011;75;48.784;9.364;2023-01-26T01:02:56;67.80;;;31.13;;
173;SDS011;75;48.784;9.364;2023-01-26T01:05:24;71.53;;;30.77;;
173;SDS011;75;48.784;9.364;2023-01-26T01:07:52;72.53;;;31.37;;
173;SDS011;75;48.784;9.364;2023-01-26T01:10:19;75.03;;;32.00;;
173;SDS011;75;48.784;9.364;2023-01-26T01:12:47;64.33;;;28.80;;
173;SDS011;75;48.784;9.364;2023-01-26T01:15:14;73.53;;;32.50;;
173;SDS011;75;48.784;9.364;2023-01-26T01:17:41;63.07;;;30.17;;
173;SDS011;75;48.784;9.364;2023-01-26T01:20:09;66.17;;;30.33;;
173;SDS011;75;48.784;9.364;2023-01-26T01:22:37;67.30;;;29.77;;
173;SDS011;75;48.784;9.364;2023-01-26T01:25:04;76.90;;;32.53;;
173;SDS011;75;48.784;9.364;2023-01-26T01:27:31;66.17;;;30.37;;
173;SDS011;75;48.784;9.364;2023-01-26T01:29:59;73.67;;;34.07;;
173;SDS011;75;48.784;9.364;2023-01-26T01:32:27;75.33;;;32.70;;
173;SDS011;75;48.784;9.364;2023-01-26T01:34:54;73.30;;;32.53;;
173;SDS011;75;48.784;9.364;2023-01-26T01:37:21;68.83;;;31.67;;
173;SDS011;75;48.784;9.364;2023-01-26T01:39:48;69.90;;;30.50;;
173;SDS011;75;48.784;9.364;2023-01-26T01:42:16;70.93;;;32.13;;
173;SDS011;75;48.784;9.364;2023-01-26T01:44:44;81.23;;;33.40;;
173;SDS011;75;48.784;9.364;2023-01-26T01:47:17;85.37;;;35.03;;
173;SDS011;75;48.784;9.364;2023-01-26T01:49:49;74.50;;;32.40;;
173;SDS011;75;48.784;9.364;2023-01-26T01:52:18;86.33;;;34.67;;
173;SDS011;75;48.784;9.364;2023-01-26T01:54:51;82.00;;;33.70;;
173;SDS011;75;48.784;9.364;2023-01-26T01:57:24;77.67;;;33.13;;
173;SDS011;75;48.784;9.364;2023-01-26T01:59:59;80.33;;;33.20;;
173;SDS011;75;48.784;9.364;2023-01-26T02:05:34;71.90;;;31.60;;
173;SDS011;75;48.784;9.364;2023-01-26T02:08:05;69.20;;;30.87;;
173;SDS011;75;48.784;9.364;2023-01-26T02:10:35;70.77;;;29.47;;
173;SDS011;75;48.784;9.364;2023-01-26T02:13:02;69.60;;;30.90;;
173;SDS011;75;48.784;9.364;2023-01-26T02:15:30;78.30;;;32.37;;
173;SDS011;75;48.784;9.364;2023-01-26T02:17:58;78.17;;;33.30;;
173;SDS011;75;48.784;9.364;2023-01-26T02:20:46;80.97;;;33.77;;
173;SDS011;75;48.784;9.364;2023-01-26T02:23:27;70.07;;;30.03;;
173;SDS011;75;48.784;9.364;2023-01-26T02:28:31;67.90;;;30.23;;
173;SDS011;75;48.784;9.364;2023-01-26T02:30:58;61.83;;;26.73;;
173;SDS011;75;48.784;9.364;2023-01-26T02:33:27;55.90;;;25.27;;
173;SDS011;75;48.784;9.364;2023-01-26T02:35:55;59.10;;;25.90;;
173;SDS011;75;48.784;9.364;2023-01-26T02:38:23;66.80;;;27.60;;
173;SDS011;75;48.784;9.364;2023-01-26T02:40:53;67.50;;;29.30;;
173;SDS011;75;48.784;9.364;2023-01-26T02:43:21;61.37;;;26.83;;
173;SDS011;75;48.784;9.364;2023-01-26T02:45:49;64.83;;;28.80;;
173;SDS011;75;48.784;9.364;2023-01-26T02:48:17;59.50;;;27.23;;
173;SDS011;75;48.784;9.364;2023-01-26T02:51:04;60.23;;;25.23;;
173;SDS011;75;48.784;9.364;2023-01-26T02:53:32;67.07;;;28.77;;
173;SDS011;75;48.784;9.364;2023-01-26T02:55:59;68.23;;;27.70;;
173;SDS011;75;48.784;9.364;2023-01-26T02:58:27;71.27;;;27.83;;
173;SDS011;75;48.784;9.364;2023-01-26T03:00:54;66.13;;;29.23;;
173;SDS011;75;48.784;9.364;2023-01-26T03:03:23;60.70;;;26.90;;
173;SDS011;75;48.784;9.364;2023-01-26T03:05:51;68.80;;;28.80;;
173;SDS011;75;48.784;9.364;2023-01-26T03:08:19;72.87;;;28.47;;
173;SDS011;75;48.784;9.364;2023-01-26T03:10:46;61.00;;;26.40;;
173;SDS011;75;48.784;9.364;2023-01-26T03:13:13;64.73;;;26.63;;
173;SDS011;75;48.784;9.364;2023-01-26T03:15:41;64.33;;;26.40;;
173;SDS011;75;48.784;9.364;2023-01-26T03:18:09;69.43;;;28.73;;
173;SDS011;75;48.784;9.364;2023-01-26T03:20:57;68.97;;;30.03;;
173;SDS011;75;48.784;9.364;2023-01-26T03:23:43;66.53;;;26.93;;
173;SDS011;75;48.784;9.364;2023-01-26T03:26:29;68.53;;;28.57;;
173;SDS011;75;48.784;9.364;2023-01-26T03:29:15;58.70;;;25.53;;
173;SDS011;75;48.784;9.364;2023-01-26T03:31:43;59.23;;;25.40;;
173;SDS011;75;48.784;9.364;2023-01-26T03:34:10;61.57;;;25.30;;
173;SDS011;75;48.784;9.364;2023-01-26T03:36:38;59.97;;;25.63;;
173;SDS011;75;48.784;9.364;2023-01-26T03:39:05;61.97;;;25.40;;
173;SDS011;75;48.784;9.364;2023-01-26T03:41:32;62.53;;;26.00;;
173;SDS011;75;48.784;9.364;2023-01-26T03:44:19;63.30;;;26.13;;
173;SDS011;75;48.784;9.364;2023-01-26T03:47:05;61.90;;;26.00;;
173;SDS011;75;48.784;9.364;2023-01-26T03:49:51;64.23;;;25.00;;
173;SDS011;75;48.784;9.364;2023-01-26T03:52:37;69.90;;;26.27;;
173;SDS011;75;48.784;9.364;2023-01-26T03:55:23;71.53;;;26.67;;
173;SDS011;75;48.784;9.364;2023-01-26T03:58:09;61.37;;;25.40;;
173;SDS011;75;48.784;9.364;2023-01-26T04:00:36;71.73;;;27.13;;
173;SDS011;75;48.784;9.364;2023-01-26T04:03:04;64.13;;;26.00;;
173;SDS011;75;48.784;9.364;2023-01-26T04:05:50;65.47;;;25.77;;
173;SDS011;75;48.784;9.364;2023-01-26T04:08:36;59.50;;;23.83;;
173;SDS011;75;48.784;9.364;2023-01-26T04:11:03;59.70;;;25.20;;
173;SDS011;75;48.784;9.364;2023-01-26T04:13:31;59.90;;;25.03;;
173;SDS011;75;48.784;9.364;2023-01-26T04:16:17;67.07;;;26.93;;
173;SDS011;75;48.784;9.364;2023-01-26T04:19:03;51.20;;;21.77;;
173;SDS011;75;48.784;9.364;2023-01-26T04:21:49;58.50;;;24.20;;
173;SDS011;75;48.784;9.364;2023-01-26T04:24:16;60.20;;;24.07;;
173;SDS011;75;48.784;9.364;2023-01-26T04:26:47;57.77;;;22.90;;
173;SDS011;75;48.784;9.364;2023-01-26T04:29:15;57.17;;;23.10;;
173;SDS011;75;48.784;9.364;2023-01-26T04:31:42;55.60;;;22.30;;
173;SDS011;75;48.784;9.364;2023-01-26T04:34:11;52.80;;;22.10;;
173;SDS011;75;48.784;9.364;2023-01-26T04:36:38;52.93;;;21.80;;
173;SDS011;75;48.784;9.364;2023-01-26T04:39:06;59.30;;;23.10;;
173;SDS011;75;48.784;9.364;2023-01-26T04:41:33;70.77;;;27.10;;
173;SDS011;75;48.784;9.364;2023-01-26T04:44:01;61.03;;;25.60;;
173;SDS011;75;48.784;9.364;2023-01-26T04:46:28;77.03;;;28.10;;
173;SDS011;75;48.784;9.364;2023-01-26T04:48:56;102.50;;;33.57;;
173;SDS011;75;48.784;9.364;2023-01-26T04:51:23;91.20;;;30.47;;
173;SDS011;75;48.784;9.364;2023-01-26T04:53:50;94.07;;;31.43;;
173;SDS011;75;48.784;9.364;2023-01-26T04:58:45;91.70;;;31.40;;
173;SDS011;75;48.784;9.364;2023-01-26T05:01:12;91.00;;;30.30;;
173;SDS011;75;48.784;9.364;2023-01-26T05:03:40;85.03;;;29.33;;
173;SDS011;75;48.784;9.364;2023-01-26T05:06:07;72.73;;;27.53;;
173;SDS011;75;48.784;9.364;2023-01-26T05:08:35;88.67;;;31.83;;
173;SDS011;75;48.784;9.364;2023-01-26T05:11:03;90.13;;;29.13;;
173;SDS011;75;48.784;9.364;2023-01-26T05:13:31;86.70;;;28.90;;
173;SDS011;75;48.784;9.364;2023-01-26T05:16:03;68.27;;;25.80;;
173;SDS011;75;48.784;9.364;2023-01-26T05:18:31;80.70;;;28.90;;
173;SDS011;75;48.784;9.364;2023-01-26T05:20:58;67.00;;;26.07;;
173;SDS011;75;48.784;9.364;2023-01-26T05:23:26;66.17;;;25.23;;
173;SDS011;75;48.784;9.364;2023-01-26T05:25:53;83.53;;;29.07;;
173;SDS011;75;48.784;9.364;2023-01-26T05:28:20;71.43;;;26.17;;
173;SDS011;75;48.784;9.364;2023-01-26T05:30:48;75.17;;;28.23;;
173;SDS011;75;48.784;9.364;2023-01-26T05:33:15;77.60;;;28.50;;
173;SDS011;75;48.784;9.364;2023-01-26T05:35:47;82.47;;;29.80;;
173;SDS011;75;48.784;9.364;2023-01-26T05:38:15;80.70;;;27.87;;
173;SDS011;75;48.784;9.364;2023-01-26T05:40:42;69.73;;;25.80;;
173;SDS011;75;48.784;9.364;2023-01-26T05:43:10;67.60;;;25.83;;
173;SDS011;75;48.784;9.364;2023-01-26T05:45:38;63.20;;;24.50;;
173;SDS011;75;48.784;9.364;2023-01-26T05:48:06;72.93;;;27.20;;
173;SDS011;75;48.784;9.364;2023-01-26T05:50:33;65.07;;;25.73;;
173;SDS011;75;48.784;9.364;2023-01-26T05:53:00;58.90;;;23.87;;
173;SDS011;75;48.784;9.364;2023-01-26T05:55:28;65.00;;;26.50;;
173;SDS011;75;48.784;9.364;2023-01-26T05:57:55;63.37;;;23.23;;
173;SDS011;75;48.784;9.364;2023-01-26T06:00:23;58.97;;;22.73;;
173;SDS011;75;48.784;9.364;2023-01-26T06:02:50;65.50;;;25.77;;
173;SDS011;75;48.784;9.364;2023-01-26T06:05:17;65.77;;;24.77;;
173;SDS011;75;48.784;9.364;2023-01-26T06:07:45;68.57;;;25.83;;
173;SDS011;75;48.784;9.364;2023-01-26T06:10:12;69.00;;;26.90;;
173;SDS011;75;48.784;9.364;2023-01-26T06:12:39;65.20;;;26.03;;
173;SDS011;75;48.784;9.364;2023-01-26T06:15:08;65.97;;;25.73;;
173;SDS011;75;48.784;9.364;2023-01-26T06:17:38;69.57;;;27.60;;
173;SDS011;75;48.784;9.364;2023-01-26T06:20:06;57.97;;;24.40;;
173;SDS011;75;48.784;9.364;2023-01-26T06:22:33;60.60;;;24.20;;
173;SDS011;75;48.784;9.364;2023-01-26T06:25:00;60.70;;;23.70;;
173;SDS011;75;48.784;9.364;2023-01-26T06:27:28;68.17;;;25.27;;
173;SDS011;75;48.784;9.364;2023-01-26T06:29:55;61.93;;;24.20;;
173;SDS011;75;48.784;9.364;2023-01-26T06:32:22;59.60;;;24.70;;
173;SDS011;75;48.784;9.364;2023-01-26T06:34:50;68.47;;;25.83;;
173;SDS011;75;48.784;9.364;2023-01-26T06:37:18;63.30;;;25.10;;
173;SDS011;75;48.784;9.364;2023-01-26T06:39:46;58.63;;;24.40;;
173;SDS011;75;48.784;9.364;2023-01-26T06:42:13;54.53;;;21.93;;
173;SDS011;75;48.784;9.364;2023-01-26T06:44:41;59.03;;;23.90;;
173;SDS011;75;48.784;9.364;2023-01-26T06:47:08;54.20;;;23.23;;
173;SDS011;75;48.784;9.364;2023-01-26T06:49:35;52.97;;;22.97;;
173;SDS011;75;48.784;9.364;2023-01-26T06:52:20;60.40;;;24.70;;
173;SDS011;75;48.784;9.364;2023-01-26T06:54:48;58.33;;;24.10;;
173;SDS011;75;48.784;9.364;2023-01-26T06:57:16;50.07;;;21.90;;
173;SDS011;75;48.784;9.364;2023-01-26T06:59:43;55.77;;;22.23;;
173;SDS011;75;48.784;9.364;2023-01-26T07:02:14;59.47;;;23.83;;
173;SDS011;75;48.784;9.364;2023-01-26T07:04:42;63.17;;;25.10;;
173;SDS011;75;48.784;9.364;2023-01-26T07:07:09;52.57;;;21.73;;
173;SDS011;75;48.784;9.364;2023-01-26T07:09:37;53.60;;;22.37;;
173;SDS011;75;48.784;9.364;2023-01-26T07:12:04;50.30;;;20.77;;
173;SDS011;75;48.784;9.364;2023-01-26T07:14:32;53.07;;;20.93;;
173;SDS011;75;48.784;9.364;2023-01-26T07:17:00;43.57;;;20.03;;
173;SDS011;75;48.784;9.364;2023-01-26T07:19:28;48.10;;;22.20;;
173;SDS011;75;48.784;9.364;2023-01-26T07:21:56;46.70;;;20.80;;
173;SDS011;75;48.784;9.364;2023-01-26T07:24:24;45.50;;;21.80;;
173;SDS011;75;48.784;9.364;2023-01-26T07:26:51;52.00;;;22.23;;
173;SDS011;75;48.784;9.364;2023-01-26T07:29:18;42.50;;;18.97;;
173;SDS011;75;48.784;9.364;2023-01-26T07:31:46;47.60;;;22.07;;
173;SDS011;75;48.784;9.364;2023-01-26T07:34:13;54.03;;;23.70;;
173;SDS011;75;48.784;9.364;2023-01-26T07:36:40;49.83;;;22.13;;
173;SDS011;75;48.784;9.364;2023-01-26T07:39:08;50.37;;;21.87;;
173;SDS011;75;48.784;9.364;2023-01-26T07:41:35;52.10;;;23.63;;
173;SDS011;75;48.784;9.364;2023-01-26T07:44:02;57.40;;;26.80;;
173;SDS011;75;48.784;9.364;2023-01-26T07:46:33;49.50;;;22.63;;
173;SDS011;75;48.784;9.364;2023-01-26T07:49:00;45.10;;;20.97;;
173;SDS011;75;48.784;9.364;2023-01-26T07:51:28;55.07;;;25.23;;
173;SDS011;75;48.784;9.364;2023-01-26T07:53:55;58.60;;;28.60;;
173;SDS011;75;48.784;9.364;2023-01-26T07:56:22;51.83;;;22.40;;
173;SDS011;75;48.784;9.364;2023-01-26T07:58:50;53.17;;;23.23;;
173;SDS011;75;48.784;9.364;2023-01-26T08:01:18;54.27;;;23.80;;
173;SDS011;75;48.784;9.364;2023-01-26T08:03:48;50.80;;;23.30;;
173;SDS011;75;48.784;9.364;2023-01-26T08:06:15;52.70;;;23.23;;
173;SDS011;75;48.784;9.364;2023-01-26T08:08:44;48.23;;;22.80;;
173;SDS011;75;48.784;9.364;2023-01-26T08:11:11;66.80;;;31.43;;
173;SDS011;75;48.784;9.364;2023-01-26T08:13:39;58.57;;;26.10;;
173;SDS011;75;48.784;9.364;2023-01-26T08:16:07;63.53;;;28.90;;
173;SDS011;75;48.784;9.364;2023-01-26T08:18:37;57.33;;;26.87;;
173;SDS011;75;48.784;9.364;2023-01-26T08:21:05;55.50;;;26.83;;
173;SDS011;75;48.784;9.364;2023-01-26T08:23:32;52.13;;;24.10;;
173;SDS011;75;48.784;9.364;2023-01-26T08:26:04;45.60;;;23.50;;
173;SDS011;75;48.784;9.364;2023-01-26T08:28:32;47.50;;;23.70;;
173;SDS011;75;48.784;9.364;2023-01-26T08:31:07;68.10;;;33.23;;
173;SDS011;75;48.784;9.364;2023-01-26T08:33:36;50.07;;;24.30;;
173;SDS011;75;48.784;9.364;2023-01-26T08:36:04;55.80;;;25.33;;
173;SDS011;75;48.784;9.364;2023-01-26T08:38:32;50.80;;;23.90;;
173;SDS011;75;48.784;9.364;2023-01-26T08:41:00;52.70;;;24.53;;
173;SDS011;75;48.784;9.364;2023-01-26T08:43:28;51.70;;;23.30;;
173;SDS011;75;48.784;9.364;2023-01-26T08:45:56;48.73;;;22.80;;
173;SDS011;75;48.784;9.364;2023-01-26T08:48:23;48.47;;;23.33;;
173;SDS011;75;48.784;9.364;2023-01-26T08:50:57;47.20;;;23.10;;
173;SDS011;75;48.784;9.364;2023-01-26T08:53:25;55.83;;;24.83;;
173;SDS011;75;48.784;9.364;2023-01-26T08:55:52;50.07;;;23.10;;
173;SDS011;75;48.784;9.364;2023-01-26T08:58:20;50.13;;;23.33;;
173;SDS011;75;48.784;9.364;2023-01-26T09:00:47;60.40;;;27.47;;
173;SDS011;75;48.784;9.364;2023-01-26T09:03:14;48.47;;;23.53;;
173;SDS011;75;48.784;9.364;2023-01-26T09:05:42;51.03;;;24.47;;
173;SDS011;75;48.784;9.364;2023-01-26T09:08:09;48.80;;;24.00;;
173;SDS011;75;48.784;9.364;2023-01-26T09:10:37;45.17;;;22.10;;
173;SDS011;75;48.784;9.364;2023-01-26T09:13:05;46.13;;;21.53;;
173;SDS011;75;48.784;9.364;2023-01-26T09:15:32;43.17;;;19.70;;
173;SDS011;75;48.784;9.364;2023-01-26T09:17:59;45.47;;;20.83;;
173;SDS011;75;48.784;9.364;2023-01-26T09:20:27;46.03;;;22.80;;
173;SDS011;75;48.784;9.364;2023-01-26T09:22:54;61.20;;;28.23;;
173;SDS011;75;48.784;9.364;2023-01-26T09:25:21;62.53;;;29.13;;
173;SDS011;75;48.784;9.364;2023-01-26T09:27:49;40.93;;;20.50;;
173;SDS011;75;48.784;9.364;2023-01-26T09:30:16;35.83;;;18.10;;
173;SDS011;75;48.784;9.364;2023-01-26T09:32:43;32.97;;;15.07;;
173;SDS011;75;48.784;9.364;2023-01-26T09:35:11;30.00;;;14.40;;
173;SDS011;75;48.784;9.364;2023-01-26T09:37:38;35.13;;;19.20;;
173;SDS011;75;48.784;9.364;2023-01-26T09:40:06;31.10;;;17.23;;
173;SDS011;75;48.784;9.364;2023-01-26T09:42:44;28.10;;;14.70;;
173;SDS011;75;48.784;9.364;2023-01-26T09:45:19;29.10;;;16.00;;
173;SDS011;75;48.784;9.364;2023-01-26T09:50:18;23.60;;;12.63;;
173;SDS011;75;48.784;9.364;2023-01-26T09:52:58;21.97;;;11.53;;
173;SDS011;75;48.784;9.364;2023-01-26T09:55:26;22.90;;;11.57;;
173;SDS011;75;48.784;9.364;2023-01-26T09:57:59;20.20;;;11.57;;
173;SDS011;75;48.784;9.364;2023-01-26T10:03:16;18.70;;;10.63;;
173;SDS011;75;48.784;9.364;2023-01-26T10:05:46;18.77;;;10.37;;
173;SDS011;75;48.784;9.364;2023-01-26T10:08:16;27.80;;;11.13;;
173;SDS011;75;48.784;9.364;2023-01-26T10:10:46;19.33;;;10.93;;
173;SDS011;75;48.784;9.364;2023-01-26T10:13:14;16.53;;;10.00;;
173;SDS011;75;48.784;9.364;2023-01-26T10:18:32;17.20;;;10.00;;
173;SDS011;75;48.784;9.364;2023-01-26T10:21:01;18.57;;;10.57;;
173;SDS011;75;48.784;9.364;2023-01-26T10:23:31;22.60;;;13.50;;
173;SDS011;75;48.784;9.364;2023-01-26T10:26:08;42.17;;;27.07;;
173;SDS011;75;48.784;9.364;2023-01-26T10:28:37;60.27;;;39.67;;
173;SDS011;75;48.784;9.364;2023-01-26T10:31:07;46.00;;;27.23;;
173;SDS011;75;48.784;9.364;2023-01-26T10:33:38;37.83;;;19.87;;
173;SDS011;75;48.784;9.364;2023-01-26T10:36:07;41.63;;;24.83;;
173;SDS011;75;48.784;9.364;2023-01-26T10:41:04;49.13;;;24.07;;
173;SDS011;75;48.784;9.364;2023-01-26T10:43:34;38.60;;;19.63;;
173;SDS011;75;48.784;9.364;2023-01-26T10:46:02;30.80;;;15.87;;
173;SDS011;75;48.784;9.364;2023-01-26T10:48:30;36.50;;;18.00;;
173;SDS011;75;48.784;9.364;2023-01-26T10:51:12;35.90;;;17.37;;
173;SDS011;75;48.784;9.364;2023-01-26T10:53:40;32.67;;;17.07;;
173;SDS011;75;48.784;9.364;2023-01-26T10:56:13;33.53;;;16.30;;
173;SDS011;75;48.784;9.364;2023-01-26T10:58:43;33.57;;;16.90;;
173;SDS011;75;48.784;9.364;2023-01-26T11:01:11;31.20;;;17.23;;
173;SDS011;75;48.784;9.364;2023-01-26T11:03:41;33.80;;;17.50;;
173;SDS011;75;48.784;9.364;2023-01-26T11:06:15;29.77;;;16.30;;
173;SDS011;75;48.784;9.364;2023-01-26T11:08:43;34.70;;;17.83;;
173;SDS011;75;48.784;9.364;2023-01-26T11:11:22;34.33;;;17.83;;
173;SDS011;75;48.784;9.364;2023-01-26T11:16:37;31.27;;;16.20;;
173;SDS011;75;48.784;9.364;2023-01-26T11:21:55;29.63;;;16.10;;
173;SDS011;75;48.784;9.364;2023-01-26T11:24:25;34.93;;;20.20;;
173;SDS011;75;48.784;9.364;2023-01-26T11:27:05;36.20;;;18.90;;
173;SDS011;75;48.784;9.364;2023-01-26T11:34:50;34.33;;;16.90;;
173;SDS011;75;48.784;9.364;2023-01-26T11:37:38;28.90;;;16.50;;
173;SDS011;75;48.784;9.364;2023-01-26T11:40:20;31.80;;;17.27;;
173;SDS011;75;48.784;9.364;2023-01-26T11:48:10;27.43;;;15.70;;
173;SDS011;75;48.784;9.364;2023-01-26T11:50:54;26.50;;;14.10;;
173;SDS011;75;48.784;9.364;2023-01-26T11:58:26;35.47;;;14.60;;
173;SDS011;75;48.784;9.364;2023-01-26T12:00:59;38.80;;;18.53;;
173;SDS011;75;48.784;9.364;2023-01-26T12:06:05;35.20;;;16.70;;
173;SDS011;75;48.784;9.364;2023-01-26T12:08:35;27.43;;;14.37;;
173;SDS011;75;48.784;9.364;2023-01-26T12:11:05;26.93;;;13.77;;
173;SDS011;75;48.784;9.364;2023-01-26T12:21:37;30.70;;;16.30;;
173;SDS011;75;48.784;9.364;2023-01-26T12:24:07;29.93;;;15.30;;
173;SDS011;75;48.784;9.364;2023-01-26T12:26:41;28.93;;;15.70;;
173;SDS011;75;48.784;9.364;2023-01-26T12:29:12;28.10;;;15.40;;
173;SDS011;75;48.784;9.364;2023-01-26T12:31:49;32.83;;;17.27;;
173;SDS011;75;48.784;9.364;2023-01-26T12:34:21;31.63;;;17.10;;
173;SDS011;75;48.784;9.364;2023-01-26T12:36:52;35.30;;;19.67;;
173;SDS011;75;48.784;9.364;2023-01-26T12:39:43;37.83;;;22.23;;
173;SDS011;75;48.784;9.364;2023-01-26T12:44:56;35.97;;;17.97;;
173;SDS011;75;48.784;9.364;2023-01-26T12:47:32;38.93;;;21.80;;
173;SDS011;75;48.784;9.364;2023-01-26T12:52:33;34.50;;;17.23;;
173;SDS011;75;48.784;9.364;2023-01-26T12:55:10;36.17;;;20.13;;
173;SDS011;75;48.784;9.364;2023-01-26T12:57:43;35.70;;;17.40;;
173;SDS011;75;48.784;9.364;2023-01-26T13:00:31;33.37;;;19.90;;
173;SDS011;75;48.784;9.364;2023-01-26T13:05:55;30.47;;;16.90;;
173;SDS011;75;48.784;9.364;2023-01-26T13:08:37;30.20;;;16.67;;
173;SDS011;75;48.784;9.364;2023-01-26T13:11:06;39.10;;;23.30;;
173;SDS011;75;48.784;9.364;2023-01-26T13:18:47;36.60;;;19.70;;
173;SDS011;75;48.784;9.364;2023-01-26T13:24:00;36.60;;;20.10;;
173;SDS011;75;48.784;9.364;2023-01-26T13:29:21;33.33;;;18.93;;
173;SDS011;75;48.784;9.364;2023-01-26T13:31:59;38.60;;;20.90;;
173;SDS011;75;48.784;9.364;2023-01-26T13:34:46;39.13;;;20.10;;
173;SDS011;75;48.784;9.364;2023-01-26T13:37:23;41.90;;;21.27;;
173;SDS011;75;48.784;9.364;2023-01-26T13:39:54;36.07;;;19.03;;
173;SDS011;75;48.784;9.364;2023-01-26T13:42:24;47.60;;;25.30;;
173;SDS011;75;48.784;9.364;2023-01-26T13:44:59;47.70;;;28.53;;
173;SDS011;75;48.784;9.364;2023-01-26T13:47:35;50.20;;;30.63;;
173;SDS011;75;48.784;9.364;2023-01-26T13:50:27;43.10;;;26.03;;
173;SDS011;75;48.784;9.364;2023-01-26T13:52:55;39.50;;;22.10;;
173;SDS011;75;48.784;9.364;2023-01-26T13:55:23;50.43;;;27.57;;
173;SDS011;75;48.784;9.364;2023-01-26T13:58:10;48.97;;;23.73;;
173;SDS011;75;48.784;9.364;2023-01-26T14:00:38;44.80;;;19.60;;
173;SDS011;75;48.784;9.364;2023-01-26T14:03:17;39.37;;;19.80;;
173;SDS011;75;48.784;9.364;2023-01-26T14:05:51;42.20;;;21.63;;
173;SDS011;75;48.784;9.364;2023-01-26T14:08:18;40.03;;;19.90;;
173;SDS011;75;48.784;9.364;2023-01-26T14:10:48;36.87;;;19.20;;
173;SDS011;75;48.784;9.364;2023-01-26T14:13:19;44.03;;;20.93;;
173;SDS011;75;48.784;9.364;2023-01-26T14:15:55;43.10;;;21.23;;
173;SDS011;75;48.784;9.364;2023-01-26T14:18:23;39.50;;;20.47;;
173;SDS011;75;48.784;9.364;2023-01-26T14:20:56;38.80;;;20.50;;
173;SDS011;75;48.784;9.364;2023-01-26T14:23:27;38.60;;;19.73;;
173;SDS011;75;48.784;9.364;2023-01-26T14:28:24;38.10;;;17.83;;
173;SDS011;75;48.784;9.364;2023-01-26T14:30:53;36.97;;;18.83;;
173;SDS011;75;48.784;9.364;2023-01-26T14:33:22;32.43;;;18.27;;
173;SDS011;75;48.784;9.364;2023-01-26T14:36:00;39.20;;;20.73;;
173;SDS011;75;48.784;9.364;2023-01-26T14:38:28;42.20;;;24.20;;
173;SDS011;75;48.784;9.364;2023-01-26T14:40:58;35.43;;;19.80;;
173;SDS011;75;48.784;9.364;2023-01-26T14:43:26;43.60;;;25.77;;
173;SDS011;75;48.784;9.364;2023-01-26T14:46:07;41.13;;;23.20;;
173;SDS011;75;48.784;9.364;2023-01-26T14:48:39;38.07;;;19.60;;
173;SDS011;75;48.784;9.364;2023-01-26T14:51:15;39.50;;;19.97;;
173;SDS011;75;48.784;9.364;2023-01-26T14:53:47;37.43;;;20.33;;
173;SDS011;75;48.784;9.364;2023-01-26T14:56:16;44.87;;;25.03;;
173;SDS011;75;48.784;9.364;2023-01-26T14:58:44;41.70;;;20.97;;
173;SDS011;75;48.784;9.364;2023-01-26T15:01:11;42.43;;;22.17;;
173;SDS011;75;48.784;9.364;2023-01-26T15:03:46;45.30;;;22.57;;
173;SDS011;75;48.784;9.364;2023-01-26T15:06:17;36.83;;;19.53;;
173;SDS011;75;48.784;9.364;2023-01-26T15:08:53;37.47;;;20.00;;
173;SDS011;75;48.784;9.364;2023-01-26T15:11:24;42.27;;;20.87;;
173;SDS011;75;48.784;9.364;2023-01-26T15:14:23;41.97;;;20.00;;
173;SDS011;75;48.784;9.364;2023-01-26T15:16:53;42.83;;;20.70;;
173;SDS011;75;48.784;9.364;2023-01-26T15:19:23;34.77;;;18.20;;
173;SDS011;75;48.784;9.364;2023-01-26T15:21:51;40.80;;;20.10;;
173;SDS011;75;48.784;9.364;2023-01-26T15:24:19;38.80;;;19.87;;
173;SDS011;75;48.784;9.364;2023-01-26T15:26:46;38.97;;;20.17;;
173;SDS011;75;48.784;9.364;2023-01-26T15:29:22;39.50;;;20.50;;
173;SDS011;75;48.784;9.364;2023-01-26T15:31:54;34.23;;;17.20;;
173;SDS011;75;48.784;9.364;2023-01-26T15:34:32;36.83;;;19.20;;
173;SDS011;75;48.784;9.364;2023-01-26T15:37:00;35.63;;;18.17;;
173;SDS011;75;48.784;9.364;2023-01-26T15:39:27;33.53;;;18.40;;
173;SDS011;75;48.784;9.364;2023-01-26T15:42:09;42.50;;;20.13;;
173;SDS011;75;48.784;9.364;2023-01-26T15:44:38;40.30;;;20.10;;
173;SDS011;75;48.784;9.364;2023-01-26T15:47:09;38.27;;;19.40;;
173;SDS011;75;48.784;9.364;2023-01-26T15:49:37;40.40;;;20.73;;
173;SDS011;75;48.784;9.364;2023-01-26T15:52:23;36.07;;;19.10;;
173;SDS011;75;48.784;9.364;2023-01-26T15:54:53;36.03;;;19.13;;
173;SDS011;75;48.784;9.364;2023-01-26T15:57:21;33.83;;;18.20;;
173;SDS011;75;48.784;9.364;2023-01-26T15:59:48;33.50;;;18.17;;
173;SDS011;75;48.784;9.364;2023-01-26T16:02:17;34.20;;;17.53;;
173;SDS011;75;48.784;9.364;2023-01-26T16:04:44;37.20;;;18.60;;
173;SDS011;75;48.784;9.364;2023-01-26T16:07:13;39.60;;;19.97;;
173;SDS011;75;48.784;9.364;2023-01-26T16:09:41;39.63;;;21.07;;
173;SDS011;75;48.784;9.364;2023-01-26T16:12:11;30.03;;;16.27;;
173;SDS011;75;48.784;9.364;2023-01-26T16:14:39;33.80;;;17.50;;
173;SDS011;75;48.784;9.364;2023-01-26T16:17:13;32.73;;;17.10;;
173;SDS011;75;48.784;9.364;2023-01-26T16:19:41;32.20;;;17.50;;
173;SDS011;75;48.784;9.364;2023-01-26T16:22:09;36.07;;;19.43;;
173;SDS011;75;48.784;9.364;2023-01-26T16:24:37;38.87;;;19.50;;
173;SDS011;75;48.784;9.364;2023-01-26T16:27:05;38.50;;;19.83;;
173;SDS011;75;48.784;9.364;2023-01-26T16:29:32;35.10;;;18.10;;
173;SDS011;75;48.784;9.364;2023-01-26T16:32:00;30.47;;;15.77;;
173;SDS011;75;48.784;9.364;2023-01-26T16:34:28;30.50;;;17.00;;
173;SDS011;75;48.784;9.364;2023-01-26T16:36:55;33.27;;;17.50;;
173;SDS011;75;48.784;9.364;2023-01-26T16:39:23;32.83;;;16.60;;
173;SDS011;75;48.784;9.364;2023-01-26T16:41:50;37.43;;;18.90;;
173;SDS011;75;48.784;9.364;2023-01-26T16:44:17;35.37;;;18.90;;
173;SDS011;75;48.784;9.364;2023-01-26T16:46:47;32.90;;;17.63;;
173;SDS011;75;48.784;9.364;2023-01-26T16:49:14;36.70;;;18.87;;
173;SDS011;75;48.784;9.364;2023-01-26T16:51:42;34.03;;;18.67;;
173;SDS011;75;48.784;9.364;2023-01-26T16:54:09;41.90;;;22.20;;
173;SDS011;75;48.784;9.364;2023-01-26T16:56:37;32.63;;;17.03;;
173;SDS011;75;48.784;9.364;2023-01-26T16:59:04;29.07;;;15.90;;
173;SDS011;75;48.784;9.364;2023-01-26T17:01:32;32.60;;;17.10;;